ADDS METAR Data INFO
IDs: Format: Raw Decoded Include TAF

Data at: 0054 UTC 22 Oct 2017

KMCO 212353Z 06007KT 10SM FEW026 FEW250 25/22 A3014 RMK AO2 SLP204 60000 T02500217 10283 20244 51007 $
KMCO 212253Z 07009KT 10SM FEW020 FEW080 BKN250 26/21 A3014 RMK AO2 SLP204 T02560206 $
KMCO 212153Z 07010KT 10SM BKN070 OVC200 26/21 A3013 RMK AO2 SLP201 T02610211 $
KMCO 212053Z 07011KT 10SM FEW034 SCT048 BKN060 OVC250 27/21 A3012 RMK AO2 RAE1957 SLP197 P0000 60000 T02670206 55007 $
KMCO 211953Z 06014KT 10SM -RA FEW037 BKN060 BKN250 27/21 A3012 RMK AO2 RAB47 SLP197 P0000 T02670206 $
KMCO 211853Z 07016KT 10SM BKN060 OVC250 27/19 A3012 RMK AO2 SLP199 T02720194 $
KMCO 211753Z 09013KT 10SM FEW040 SCT060 SCT130 BKN300 28/19 A3014 RMK AO2 SLP205 T02780194 10294 20222 58007 $
KMCO 211653Z 08014KT 10SM BKN041 BKN055 BKN130 BKN300 29/20 A3015 RMK AO2 SLP209 T02890200 $
KMCO 211553Z 09014KT 10SM SCT037 SCT100 BKN300 28/19 A3016 RMK AO2 SLP212 T02830194 $
KMCO 211453Z 07012KT 10SM FEW045 FEW080 BKN300 27/19 A3016 RMK AO2 SLP212 T02670189 51014 $
KMCO 211353Z 06010KT 10SM FEW030 FEW050 BKN300 26/18 A3016 RMK AO2 SLP211 T02560183 $
KMCO 211253Z 07008KT 10SM FEW050 BKN300 24/19 A3014 RMK AO2 SLP206 T02390194 $
KMCO 211153Z 06008KT 10SM FEW028 BKN300 22/20 A3012 RMK AO2 SLP197 T02220200 10228 20217 51013 $
KMCO 211053Z 06007KT 10SM FEW030 FEW300 22/20 A3011 RMK AO2 SLP194 T02220200 $
KMCO 210953Z 06005KT 10SM FEW025 SCT300 22/20 A3010 RMK AO2 SLP190 T02170200 $
KMCO 210853Z 06007KT 10SM FEW012 SCT300 22/21 A3008 RMK AO2 SLP185 T02220206 56008 $
KMCO 210753Z 06007KT 10SM SCT300 22/21 A3008 RMK AO2 SLP184 T02220211 $
KMCO 210653Z 08005KT 10SM FEW030 BKN300 22/21 A3009 RMK AO2 SLP188 T02220211 $
KMCO 210553Z 07007KT 10SM FEW029 BKN300 23/22 A3010 RMK AO2 SLP192 T02280217 10250 20222 58007 $
KMCO 210453Z 06005KT 10SM FEW028 BKN300 23/22 A3012 RMK AO2 SLP196 T02280217 402890217 $
KMCO 210353Z 06005KT 10SM FEW055 SCT300 23/22 A3013 RMK AO2 SLP200 T02280217 $
KMCO 210253Z 06008KT 10SM FEW030 BKN055 BKN300 23/21 A3012 RMK AO2 SLP199 T02330211 51008 $
KMCO 210153Z 05005KT 10SM SCT044 BKN060 BKN300 24/21 A3012 RMK AO2 SLP196 T02390206 $
KMCO 210053Z 05007KT 10SM FEW050 SCT300 24/21 A3011 RMK AO2 SLP195 T02390206 $
KMCO 202353Z 05009KT 10SM FEW011 SCT030 BKN300 24/21 A3010 RMK AO2 SLP191 T02440206 10289 20244 53010 $
KMCO 202253Z 07011KT 10SM SCT035 BKN300 26/20 A3009 RMK AO2 SLP186 T02560200 $
KMCO 202153Z 05015KT 10SM FEW043 SCT300 27/19 A3008 RMK AO2 SLP183 T02670189 $
KMCO 202053Z 06014KT 10SM FEW043 SCT060 BKN300 28/18 A3007 RMK AO2 SLP181 T02830178 56009 $
KMCO 201953Z 07014G22KT 10SM FEW037 SCT060 BKN300 28/20 A3008 RMK AO2 SLP184 T02830200 $
KMCO 201853Z 05015KT 10SM SCT042 BKN050 28/19 A3008 RMK AO2 SLP184 T02780189 $
KMCO 201753Z 05013KT 10SM BKN045 28/19 A3010 RMK AO2 RAB17E22 SLP191 P0000 60000 T02830189 10289 20217 58014 $
KMCO 201653Z 07014KT 10SM BKN045 28/18 A3013 RMK AO2 SLP200 T02780183 $
KMCO 201553Z 06017KT 10SM FEW038 BKN044 28/19 A3014 RMK AO2 SLP204 T02780189 $
KMCO 201453Z 05016KT 10SM SCT036 SCT300 27/19 A3014 RMK AO2 SLP205 T02670194 50007 $
KMCO 201353Z 06010KT 10SM FEW300 26/20 A3014 RMK AO2 SLP206 T02610200 $